Time;durP1;ratioP1;P1;durP2;ratioP2;P2;SDS_P1;SDS_P2;PMS_P1;PMS_P2;Temp;Humidity;BMP_temperature;BMP_pressure;BME280_temperature;BME280_humidity;BME280_pressure;Samples;Min_cycle;Max_cycle;Signal;HPM_P1;HPM_P2
2022/02/12 00:00:22;;;;;;;7.73;5.90;;;22.80;60.00;;;;;;4996727;28;20464;-82
2022/02/12 00:02:49;;;;;;;7.17;5.80;;;22.80;60.00;;;;;;4994526;28;20971;-81
2022/02/12 00:05:17;;;;;;;5.80;5.30;;;22.80;60.00;;;;;;4994695;28;20493;-81
2022/02/12 00:07:46;;;;;;;7.60;5.93;;;22.80;59.90;;;;;;4994396;28;20529;-81
2022/02/12 00:10:13;;;;;;;6.57;5.50;;;22.80;59.90;;;;;;4996258;28;20447;-82
2022/02/12 00:12:40;;;;;;;6.60;5.90;;;22.80;59.90;;;;;;4994335;28;20990;-81
2022/02/12 00:15:08;;;;;;;6.10;5.20;;;22.80;59.90;;;;;;4994512;28;20806;-81
2022/02/12 00:17:34;;;;;;;7.37;5.70;;;22.80;59.80;;;;;;4995982;28;20447;-83
2022/02/12 00:20:01;;;;;;;6.67;5.30;;;22.70;59.80;;;;;;4994265;28;20931;-81
2022/02/12 00:22:28;;;;;;;6.33;5.50;;;22.70;59.70;;;;;;4995076;28;20449;-92
2022/02/12 00:24:56;;;;;;;6.90;4.97;;;22.70;59.70;;;;;;4996670;28;20441;-81
2022/02/12 00:27:23;;;;;;;6.17;5.60;;;22.70;59.70;;;;;;4993889;28;20468;-82
2022/02/12 00:29:50;;;;;;;5.67;5.10;;;22.70;59.70;;;;;;4996571;28;20469;-81
2022/02/12 00:32:16;;;;;;;5.50;4.90;;;22.70;59.70;;;;;;4994878;28;20487;-95
2022/02/12 00:34:43;;;;;;;5.73;5.20;;;22.70;59.60;;;;;;4993935;28;20436;-81
2022/02/12 00:37:10;;;;;;;6.07;5.33;;;22.70;59.60;;;;;;4994257;28;20447;-86
2022/02/12 00:39:38;;;;;;;5.60;5.07;;;22.70;59.50;;;;;;4993914;28;20448;-81
2022/02/12 00:42:06;;;;;;;5.40;4.90;;;22.70;59.50;;;;;;4994964;28;20444;-96
2022/02/12 00:44:33;;;;;;;5.43;4.80;;;22.70;59.50;;;;;;4993970;28;20955;-81
2022/02/12 00:47:01;;;;;;;5.63;5.00;;;22.70;59.50;;;;;;4994301;28;20911;-82
2022/02/12 00:49:28;;;;;;;5.30;4.80;;;22.60;59.50;;;;;;4994888;28;20543;-81
2022/02/12 00:51:55;;;;;;;6.57;5.33;;;22.70;59.50;;;;;;4995693;28;20852;-82
2022/02/12 00:54:22;;;;;;;5.73;5.17;;;22.60;59.40;;;;;;4993838;28;20448;-81
2022/02/12 00:56:48;;;;;;;7.50;6.13;;;22.60;59.40;;;;;;4995718;28;20455;-82
2022/02/12 00:59:16;;;;;;;5.40;4.80;;;22.60;59.40;;;;;;4993939;28;20467;-81
2022/02/12 01:01:43;;;;;;;5.13;4.63;;;22.60;59.30;;;;;;4994372;28;20448;-81
2022/02/12 01:04:10;;;;;;;5.57;5.07;;;22.70;59.40;;;;;;4995720;28;20464;-81
2022/02/12 01:06:37;;;;;;;6.40;5.57;;;22.60;59.30;;;;;;4995609;28;20441;-96
2022/02/12 01:09:04;;;;;;;7.67;5.27;;;22.60;59.30;;;;;;4993856;28;20436;-81
2022/02/12 01:11:31;;;;;;;5.63;4.90;;;22.70;59.40;;;;;;4995529;28;20479;-82
2022/02/12 01:13:58;;;;;;;7.43;4.90;;;22.60;59.90;;;;;;4994466;28;20471;-81
2022/02/12 01:16:26;;;;;;;5.00;4.30;;;22.60;59.30;;;;;;4994430;28;20811;-81
2022/02/12 01:18:53;;;;;;;6.63;4.97;;;22.60;59.20;;;;;;4994424;28;20440;-81
2022/02/12 01:21:20;;;;;;;5.77;4.80;;;22.50;59.10;;;;;;4994623;28;20459;-82
2022/02/12 01:23:47;;;;;;;6.37;4.70;;;22.60;59.20;;;;;;4994833;28;20432;-81
2022/02/12 01:26:14;;;;;;;5.13;4.63;;;22.50;59.10;;;;;;4993903;28;20784;-81
2022/02/12 01:28:40;;;;;;;4.60;4.20;;;22.50;59.10;;;;;;4995334;28;20479;-81
2022/02/12 01:31:07;;;;;;;5.23;4.40;;;22.50;59.10;;;;;;4993661;28;20870;-81
2022/02/12 01:33:35;;;;;;;5.70;5.20;;;22.50;59.00;;;;;;4994789;28;20499;-81
2022/02/12 01:36:03;;;;;;;4.77;4.33;;;22.50;59.00;;;;;;4994155;28;20432;-81
2022/02/12 01:38:30;;;;;;;5.23;4.23;;;22.50;59.00;;;;;;4993445;28;20444;-81
2022/02/12 01:40:57;;;;;;;5.27;4.73;;;22.50;58.90;;;;;;4994149;28;20447;-81
2022/02/12 01:43:24;;;;;;;4.67;4.20;;;22.50;58.90;;;;;;4993625;28;20445;-96
2022/02/12 01:45:51;;;;;;;4.10;3.70;;;22.50;58.90;;;;;;4995041;28;20451;-82
2022/02/12 01:48:18;;;;;;;5.00;4.50;;;22.50;58.90;;;;;;4995417;28;20445;-81
2022/02/12 01:50:49;;;;;;;5.73;4.67;;;22.50;58.90;;;;;;4997088;28;20440;-82
2022/02/12 01:53:17;;;;;;;5.30;4.80;;;22.50;58.90;;;;;;4997265;28;20495;-81
2022/02/12 01:55:43;;;;;;;4.17;3.77;;;22.40;58.80;;;;;;4997706;28;20451;-82
2022/02/12 01:58:10;;;;;;;4.57;4.10;;;22.40;58.80;;;;;;5001753;28;20444;-83
2022/02/12 02:00:39;;;;;;;3.80;3.40;;;22.40;58.70;;;;;;4999211;28;20436;-82
2022/02/12 02:03:06;;;;;;;4.97;4.40;;;22.40;58.70;;;;;;4997657;28;20444;-81
2022/02/12 02:05:33;;;;;;;4.57;4.10;;;22.40;58.70;;;;;;4996791;28;20451;-81
2022/02/12 02:08:01;;;;;;;5.33;4.23;;;22.40;58.70;;;;;;4996845;28;20451;-81
2022/02/12 02:10:28;;;;;;;4.60;4.10;;;22.40;58.70;;;;;;4996803;28;20507;-96
2022/02/12 02:12:55;;;;;;;4.07;3.43;;;22.40;58.70;;;;;;4997008;28;20487;-81
2022/02/12 02:15:22;;;;;;;4.00;3.53;;;22.40;58.70;;;;;;4996606;28;20444;-81
2022/02/12 02:17:49;;;;;;;4.77;4.23;;;22.40;58.70;;;;;;4996580;28;20444;-81
2022/02/12 02:20:16;;;;;;;3.80;3.50;;;22.40;58.60;;;;;;4996344;28;20445;-81
2022/02/12 02:22:55;;;;;;;4.27;3.83;;;22.40;58.60;;;;;;4997836;28;20539;-81
2022/02/12 02:25:22;;;;;;;4.03;3.70;;;22.40;58.50;;;;;;4997784;28;20444;-82
2022/02/12 02:27:49;;;;;;;5.50;4.20;;;22.30;58.50;;;;;;4996236;28;20476;-81
2022/02/12 02:30:17;;;;;;;4.20;3.80;;;22.30;58.50;;;;;;4996366;28;20488;-81
2022/02/12 02:32:44;;;;;;;4.97;3.90;;;22.30;58.50;;;;;;4996672;28;20496;-81
2022/02/12 02:35:13;;;;;;;4.87;3.27;;;22.30;58.50;;;;;;4997491;28;20444;-81
2022/02/12 02:37:42;;;;;;;4.80;4.40;;;22.40;58.60;;;;;;4996526;28;20826;-81
2022/02/12 02:40:15;;;;;;;3.60;3.23;;;22.30;58.40;;;;;;4996884;28;20452;-81
2022/02/12 02:42:43;;;;;;;4.30;3.90;;;22.30;58.30;;;;;;4996585;28;20528;-81
2022/02/12 02:45:11;;;;;;;4.07;3.67;;;22.30;58.40;;;;;;4996500;28;20454;-81
2022/02/12 02:47:42;;;;;;;4.37;3.80;;;22.30;58.40;;;;;;4996086;28;20785;-81
2022/02/12 02:58:24;;;;;;;4.57;3.37;;;22.20;58.30;;;;;;4991942;28;20448;-81
2022/02/12 03:00:50;;;;;;;4.27;3.90;;;22.20;58.30;;;;;;4996518;28;20447;-81
2022/02/12 03:03:17;;;;;;;4.70;3.60;;;22.20;58.20;;;;;;4996835;28;20447;-81
2022/02/12 03:05:44;;;;;;;3.83;3.53;;;22.20;58.20;;;;;;4995771;28;20445;-81
2022/02/12 03:08:11;;;;;;;3.40;3.10;;;22.20;58.30;;;;;;4996617;28;20436;-81
2022/02/12 03:10:39;;;;;;;5.40;4.20;;;22.20;58.20;;;;;;4996332;28;20451;-81
2022/02/12 03:13:06;;;;;;;4.10;3.60;;;22.20;58.20;;;;;;4995939;28;20480;-81
2022/02/12 03:15:33;;;;;;;4.03;3.23;;;22.20;58.20;;;;;;4995964;28;20455;-81
2022/02/12 03:18:00;;;;;;;4.23;3.77;;;22.20;58.20;;;;;;4995747;28;20448;-81
2022/02/12 03:20:26;;;;;;;4.40;4.00;;;22.20;58.10;;;;;;4995789;28;20441;-81
2022/02/12 03:22:55;;;;;;;4.00;3.70;;;22.20;58.10;;;;;;4996756;28;20459;-81
2022/02/12 03:25:22;;;;;;;4.13;3.73;;;22.20;58.10;;;;;;4995459;28;20446;-81
2022/02/12 03:27:53;;;;;;;3.20;2.93;;;22.20;58.10;;;;;;4994970;28;20479;-81
2022/02/12 03:30:20;;;;;;;3.73;3.40;;;22.20;58.10;;;;;;4995047;28;20479;-81
2022/02/12 03:32:47;;;;;;;3.47;3.17;;;22.20;58.10;;;;;;4995030;28;20499;-81
2022/02/12 03:35:14;;;;;;;4.43;3.23;;;22.20;58.00;;;;;;4995117;28;20451;-81
2022/02/12 03:37:41;;;;;;;3.87;3.57;;;22.20;58.00;;;;;;4996266;28;20467;-82
2022/02/12 03:40:09;;;;;;;3.63;3.33;;;22.20;58.00;;;;;;4994957;28;20447;-81
2022/02/12 03:42:36;;;;;;;4.60;3.57;;;22.20;58.00;;;;;;4995303;28;20516;-81
2022/02/12 03:45:05;;;;;;;4.30;3.90;;;22.10;57.90;;;;;;4994809;28;20440;-81
2022/02/12 03:47:32;;;;;;;3.80;3.50;;;22.10;57.90;;;;;;4994686;28;20448;-81
2022/02/12 03:49:58;;;;;;;3.90;3.00;;;22.10;58.00;;;;;;4994813;28;20804;-81
2022/02/12 03:52:25;;;;;;;3.33;3.13;;;22.10;57.90;;;;;;4995475;28;20483;-82
2022/02/12 03:54:52;;;;;;;4.47;3.33;;;22.20;58.00;;;;;;4995997;28;20456;-82
2022/02/12 03:57:19;;;;;;;4.13;3.50;;;22.10;57.90;;;;;;4995275;28;20456;-96
2022/02/12 03:59:46;;;;;;;3.47;3.17;;;22.10;57.90;;;;;;4995032;28;20471;-81
2022/02/12 04:02:14;;;;;;;4.40;3.60;;;22.10;57.90;;;;;;4994810;28;20452;-96
2022/02/12 04:04:41;;;;;;;3.97;3.53;;;22.10;57.90;;;;;;4994381;28;20444;-81
2022/02/12 04:07:08;;;;;;;3.60;3.30;;;22.10;57.80;;;;;;4994618;28;20448;-82
2022/02/12 04:09:35;;;;;;;3.50;2.70;;;22.10;57.80;;;;;;4994985;28;20451;-81
2022/02/12 04:12:01;;;;;;;3.80;3.47;;;22.10;57.80;;;;;;4994506;28;20443;-82
2022/02/12 04:14:28;;;;;;;3.90;3.50;;;22.10;57.80;;;;;;4995601;28;20448;-81
2022/02/12 04:16:55;;;;;;;4.57;2.83;;;22.10;57.80;;;;;;4994748;28;20452;-82
2022/02/12 04:19:23;;;;;;;3.30;3.10;;;22.10;57.80;;;;;;4994942;28;20516;-81
2022/02/12 04:21:50;;;;;;;3.10;2.80;;;22.10;57.80;;;;;;4994915;28;20449;-96
2022/02/12 04:24:16;;;;;;;2.80;2.60;;;22.10;57.80;;;;;;4994889;28;20452;-81
2022/02/12 04:26:43;;;;;;;2.87;2.67;;;22.00;57.70;;;;;;4994356;28;20468;-82
2022/02/12 04:29:10;;;;;;;3.50;2.97;;;22.00;57.70;;;;;;4993999;28;20465;-81
2022/02/12 04:31:37;;;;;;;3.07;2.77;;;22.00;57.60;;;;;;4994415;28;20440;-82
2022/02/12 04:34:04;;;;;;;3.20;2.93;;;22.00;57.60;;;;;;4993974;28;20928;-81
2022/02/12 04:36:32;;;;;;;3.00;2.70;;;22.00;57.60;;;;;;4994056;28;20451;-81
2022/02/12 04:38:58;;;;;;;3.00;2.70;;;22.00;57.60;;;;;;4995031;28;20443;-81
2022/02/12 04:41:25;;;;;;;2.60;2.40;;;22.00;57.60;;;;;;4993934;28;20443;-81
2022/02/12 04:43:52;;;;;;;2.60;2.40;;;22.00;57.60;;;;;;4994334;28;20467;-81
2022/02/12 04:46:19;;;;;;;3.20;2.67;;;22.00;57.60;;;;;;4994073;28;20440;-81
2022/02/12 04:48:49;;;;;;;3.50;3.20;;;22.00;57.50;;;;;;4994432;28;20871;-81
2022/02/12 04:51:15;;;;;;;3.87;3.20;;;22.00;57.50;;;;;;4995219;28;20487;-81
2022/02/12 04:53:44;;;;;;;3.03;2.77;;;22.00;57.60;;;;;;4994425;28;20851;-81
2022/02/12 04:56:11;;;;;;;3.07;2.80;;;22.00;57.50;;;;;;4994592;28;20780;-81
2022/02/12 04:58:38;;;;;;;3.33;2.83;;;22.00;57.50;;;;;;4993735;28;20810;-81
2022/02/12 05:01:04;;;;;;;2.87;2.10;;;22.00;57.50;;;;;;4994224;28;20445;-82
2022/02/12 05:03:31;;;;;;;3.10;2.80;;;22.00;57.50;;;;;;4994239;28;20452;-81
2022/02/12 05:05:58;;;;;;;3.10;2.80;;;22.00;57.50;;;;;;4994878;28;20444;-81
2022/02/12 05:08:25;;;;;;;2.43;2.13;;;22.00;57.50;;;;;;4994639;28;20444;-81
2022/02/12 05:10:53;;;;;;;3.83;3.20;;;22.00;57.50;;;;;;4993862;28;20507;-81
2022/02/12 05:13:20;;;;;;;3.13;2.83;;;22.00;57.50;;;;;;4993816;28;20928;-81
2022/02/12 05:15:47;;;;;;;2.53;2.33;;;22.10;57.50;;;;;;4994745;28;20448;-81
2022/02/12 05:18:13;;;;;;;3.00;2.33;;;22.10;57.50;;;;;;4994230;28;20448;-81
2022/02/12 05:20:40;;;;;;;4.10;2.63;;;22.00;57.40;;;;;;4990292;28;20958;-96
2022/02/12 05:23:07;;;;;;;3.20;2.90;;;22.00;57.40;;;;;;5000708;28;20444;-96
2022/02/12 05:25:33;;;;;;;2.27;2.03;;;21.90;57.30;;;;;;5001837;28;20443;-82
2022/02/12 05:28:02;;;;;;;3.03;2.63;;;21.90;57.30;;;;;;5001412;28;20479;-81
2022/02/12 05:30:28;;;;;;;2.83;2.63;;;22.00;57.40;;;;;;5000502;28;20440;-81
2022/02/12 05:32:55;;;;;;;2.73;2.43;;;22.00;57.40;;;;;;5001500;28;20484;-95
2022/02/12 05:35:22;;;;;;;2.50;2.30;;;21.90;57.30;;;;;;5001111;28;20789;-82
2022/02/12 05:37:48;;;;;;;2.17;2.07;;;21.90;57.20;;;;;;5002975;28;20440;-96
2022/02/12 05:40:15;;;;;;;2.67;2.30;;;22.00;57.30;;;;;;4999561;28;20446;-81
2022/02/12 05:42:42;;;;;;;2.37;2.13;;;21.90;57.80;;;;;;4999777;28;20451;-96
2022/02/12 05:45:11;;;;;;;3.30;2.30;;;21.90;57.20;;;;;;4999629;28;20445;-81
2022/02/12 05:47:39;;;;;;;2.60;2.40;;;21.90;57.20;;;;;;5000411;28;20429;-82
2022/02/12 05:50:07;;;;;;;3.80;2.83;;;21.90;57.10;;;;;;4999887;28;20450;-81
2022/02/12 05:52:33;;;;;;;2.27;2.07;;;21.90;57.10;;;;;;5000353;28;20437;-81
2022/02/12 05:55:00;;;;;;;2.60;2.30;;;21.90;57.10;;;;;;5003411;28;20448;-96
2022/02/12 05:57:27;;;;;;;2.43;2.23;;;21.90;57.10;;;;;;5001126;28;20444;-96
2022/02/12 05:59:54;;;;;;;2.30;2.10;;;21.90;57.10;;;;;;5001129;28;20464;-82
2022/02/12 06:02:22;;;;;;;2.40;2.20;;;21.90;57.10;;;;;;5000107;28;20443;-96
2022/02/12 06:04:49;;;;;;;2.47;2.27;;;22.00;57.20;;;;;;5000541;28;20451;-82
2022/02/12 06:07:15;;;;;;;7.30;2.50;;;21.90;57.10;;;;;;5000577;28;20444;-96
2022/02/12 06:09:42;;;;;;;2.90;2.60;;;21.90;57.10;;;;;;4999135;28;20451;-82
2022/02/12 06:12:09;;;;;;;2.57;2.37;;;21.90;57.10;;;;;;4998427;28;20480;-82
2022/02/12 06:14:36;;;;;;;2.67;2.47;;;21.90;57.10;;;;;;4998964;28;20495;-81
2022/02/12 06:17:03;;;;;;;2.67;2.20;;;21.90;57.10;;;;;;5001116;28;20468;-96
2022/02/12 06:19:31;;;;;;;2.07;1.80;;;21.90;57.10;;;;;;5000314;28;20459;-81
2022/02/12 06:21:58;;;;;;;2.93;2.30;;;21.90;57.10;;;;;;4999978;28;20943;-96
2022/02/12 06:24:25;;;;;;;2.27;2.07;;;21.90;57.00;;;;;;5001007;28;20448;-81
2022/02/12 06:26:56;;;;;;;2.83;2.63;;;21.90;57.10;;;;;;4998442;28;20480;-82
2022/02/12 06:29:23;;;;;;;2.47;2.00;;;21.90;57.00;;;;;;4999845;28;20499;-81
2022/02/12 06:31:50;;;;;;;2.40;2.20;;;21.90;57.00;;;;;;4999465;28;20524;-96
2022/02/12 06:34:18;;;;;;;2.33;2.13;;;21.90;57.00;;;;;;4998731;28;20488;-96
2022/02/12 06:36:46;;;;;;;2.30;2.00;;;21.90;57.00;;;;;;4999268;28;20441;-82
2022/02/12 06:39:12;;;;;;;2.53;2.20;;;21.90;57.10;;;;;;5001022;28;20452;-82
2022/02/12 06:41:39;;;;;;;2.60;2.40;;;21.90;57.10;;;;;;4998198;28;20471;-81
2022/02/12 06:44:06;;;;;;;1.83;1.70;;;21.90;57.10;;;;;;4998934;28;20448;-82
2022/02/12 06:46:33;;;;;;;2.90;2.60;;;21.90;57.00;;;;;;4999920;28;20476;-81
2022/02/12 06:49:00;;;;;;;2.43;1.60;;;21.90;57.10;;;;;;5000999;28;20460;-96
2022/02/12 06:51:26;;;;;;;2.23;1.57;;;21.90;57.00;;;;;;5001648;28;20516;-81
2022/02/12 06:53:55;;;;;;;2.20;2.10;;;21.80;57.00;;;;;;5003995;28;20485;-83
2022/02/12 06:56:21;;;;;;;2.40;2.20;;;21.90;57.70;;;;;;5005719;28;20448;-83
2022/02/12 06:58:48;;;;;;;2.03;1.83;;;21.90;57.00;;;;;;5005180;28;20979;-96
2022/02/12 07:01:15;;;;;;;1.90;1.80;;;21.90;57.00;;;;;;5006375;28;20440;-96
2022/02/12 07:03:42;;;;;;;2.20;2.00;;;21.90;57.00;;;;;;5004201;28;20460;-96
2022/02/12 07:06:09;;;;;;;2.23;1.70;;;21.90;57.00;;;;;;5004061;28;20440;-82
2022/02/12 07:08:35;;;;;;;2.17;1.97;;;21.90;57.00;;;;;;5003179;28;20447;-82
2022/02/12 07:11:03;;;;;;;2.03;1.83;;;21.90;57.00;;;;;;5003331;28;20444;-83
2022/02/12 07:13:30;;;;;;;1.53;1.43;;;21.80;56.90;;;;;;5002881;28;20486;-82
2022/02/12 07:16:00;;;;;;;2.40;1.77;;;21.80;56.90;;;;;;5005808;28;20790;-82
2022/02/12 07:18:27;;;;;;;1.93;1.77;;;21.90;57.00;;;;;;5004423;28;20847;-83
2022/02/12 07:20:53;;;;;;;1.80;1.57;;;21.80;56.90;;;;;;5006822;28;20445;-83
2022/02/12 07:23:20;;;;;;;1.87;1.60;;;21.80;56.90;;;;;;5006870;28;20472;-96
2022/02/12 07:25:47;;;;;;;2.03;1.83;;;21.90;57.00;;;;;;5000396;28;20943;-82
2022/02/12 07:28:15;;;;;;;2.33;1.93;;;21.80;57.00;;;;;;5002710;28;20823;-83
2022/02/12 07:30:42;;;;;;;2.27;1.90;;;21.80;57.00;;;;;;5000058;28;20441;-94
2022/02/12 07:33:09;;;;;;;1.87;1.70;;;21.80;57.00;;;;;;5003867;28;20931;-82
2022/02/12 07:35:36;;;;;;;1.90;1.80;;;21.80;57.00;;;;;;5006111;28;20440;-83
2022/02/12 07:38:03;;;;;;;1.60;1.50;;;21.80;57.00;;;;;;5004275;28;20443;-84
2022/02/12 07:40:30;;;;;;;2.00;1.90;;;21.80;57.00;;;;;;5002703;28;20445;-83
2022/02/12 07:42:57;;;;;;;2.37;2.00;;;21.80;57.00;;;;;;4993815;28;20449;-96
2022/02/12 07:45:25;;;;;;;2.30;2.10;;;21.80;57.00;;;;;;4986890;28;20831;-84
2022/02/12 07:47:54;;;;;;;1.80;1.70;;;21.80;57.00;;;;;;4975751;28;20441;-88
2022/02/12 07:50:21;;;;;;;2.40;2.17;;;21.80;57.00;;;;;;4975725;28;20438;-86
2022/02/12 07:52:47;;;;;;;1.90;1.70;;;21.80;57.00;;;;;;4975636;28;20441;-86
2022/02/12 07:55:15;;;;;;;2.27;2.07;;;21.80;57.00;;;;;;4975967;28;20512;-86
2022/02/12 07:57:42;;;;;;;3.10;1.87;;;21.80;57.00;;;;;;4975464;28;20445;-91
2022/02/12 08:00:10;;;;;;;2.80;2.13;;;21.90;57.00;;;;;;4975550;28;20917;-92
2022/02/12 08:02:38;;;;;;;4.40;2.00;;;21.80;56.90;;;;;;4975534;28;20445;-86
2022/02/12 08:05:06;;;;;;;1.63;1.53;;;21.80;56.90;;;;;;4975069;28;20450;-92
2022/02/12 08:07:37;;;;;;;2.87;1.90;;;21.70;56.90;;;;;;4976895;28;20452;-82
2022/02/12 08:11:22;;;;;;;3.10;2.47;;;21.80;57.10;;;;;;4985981;28;20784;-82
2022/02/12 08:12:54;;;;;;;2.23;1.63;;;21.90;57.20;;;;;;4987600;28;20465;-82
2022/02/12 08:15:21;;;;;;;2.50;2.00;;;21.90;57.20;;;;;;4987265;28;20468;-82
2022/02/12 08:17:49;;;;;;;1.90;1.70;;;21.90;57.20;;;;;;4987372;28;20440;-82
2022/02/12 08:20:16;;;;;;;1.60;1.43;;;21.90;57.30;;;;;;4997119;23;20429;-81
2022/02/12 08:22:43;;;;;;;2.27;1.53;;;21.90;57.30;;;;;;5005575;28;20429;-82
2022/02/12 08:25:11;;;;;;;1.83;1.63;;;22.00;57.30;;;;;;4995861;28;20472;-83
2022/02/12 08:27:38;;;;;;;4.37;1.50;;;22.10;57.40;;;;;;4994250;28;20440;-88
2022/02/12 08:30:06;;;;;;;2.83;1.67;;;22.00;57.30;;;;;;4994278;28;20471;-88
2022/02/12 08:32:33;;;;;;;3.30;2.40;;;22.10;57.30;;;;;;4994338;28;20479;-85
2022/02/12 08:35:02;;;;;;;5.87;2.17;;;22.10;57.30;;;;;;4987978;28;20487;-89
2022/02/12 08:37:29;;;;;;;7.83;2.77;;;22.10;57.20;;;;;;4975196;28;20449;-86
2022/02/12 08:39:55;;;;;;;8.20;2.17;;;22.20;57.20;;;;;;4992952;28;20444;-85
2022/02/12 08:42:22;;;;;;;5.43;2.40;;;22.30;57.10;;;;;;4993939;28;20451;-85
2022/02/12 08:44:49;;;;;;;5.40;2.90;;;22.40;57.00;;;;;;4993644;28;20436;-85
2022/02/12 08:47:16;;;;;;;3.20;1.83;;;22.50;57.50;;;;;;4993582;28;20796;-85
2022/02/12 08:49:43;;;;;;;3.63;1.90;;;22.70;56.80;;;;;;4993307;28;20811;-86
2022/02/12 08:52:11;;;;;;;6.20;2.10;;;22.90;56.90;;;;;;4993588;28;20452;-86
2022/02/12 08:54:38;;;;;;;3.17;2.30;;;22.90;56.60;;;;;;4993340;28;20488;-85
2022/02/12 08:57:05;;;;;;;2.67;2.10;;;23.10;56.70;;;;;;4993639;28;20436;-85
2022/02/12 08:59:33;;;;;;;4.73;2.10;;;23.20;56.50;;;;;;4993934;28;20460;-86
2022/02/12 09:02:00;;;;;;;8.80;2.90;;;23.30;56.50;;;;;;4994365;28;20443;-85
2022/02/12 09:04:26;;;;;;;4.13;2.63;;;23.40;56.20;;;;;;4993690;28;20447;-85
2022/02/12 09:06:53;;;;;;;8.23;3.17;;;23.50;56.20;;;;;;4994105;28;20440;-85
2022/02/12 09:09:21;;;;;;;4.30;1.83;;;23.50;56.20;;;;;;4994063;28;20452;-86
2022/02/12 09:11:48;;;;;;;6.47;2.20;;;23.60;56.30;;;;;;4994003;28;20448;-85
2022/02/12 09:14:15;;;;;;;2.60;2.40;;;23.60;56.00;;;;;;4993860;28;20482;-85
2022/02/12 09:16:43;;;;;;;7.23;2.53;;;23.60;56.10;;;;;;4994066;28;20923;-85
2022/02/12 09:19:10;;;;;;;4.13;2.60;;;23.70;56.00;;;;;;4994109;28;20440;-85
2022/02/12 09:21:37;;;;;;;5.03;2.43;;;23.80;55.60;;;;;;4993651;28;20468;-85
2022/02/12 09:24:05;;;;;;;6.33;2.43;;;23.80;55.70;;;;;;4993819;28;20457;-81
2022/02/12 09:26:33;;;;;;;3.30;2.30;;;23.80;55.90;;;;;;4993688;28;20453;-81
2022/02/12 09:29:01;;;;;;;5.30;2.13;;;23.90;56.40;;;;;;4993857;28;20471;-82
2022/02/12 09:31:28;;;;;;;4.80;2.20;;;24.00;57.10;;;;;;4993785;28;20844;-82
2022/02/12 09:33:55;;;;;;;4.60;2.23;;;24.10;57.00;;;;;;4993562;28;20451;-82
2022/02/12 09:36:22;;;;;;;5.17;2.37;;;24.20;56.90;;;;;;4993809;28;20441;-82
2022/02/12 09:38:48;;;;;;;3.00;2.13;;;24.20;57.00;;;;;;4993604;28;20468;-81
2022/02/12 09:41:20;;;;;;;3.17;1.87;;;24.20;57.00;;;;;;4993727;28;20440;-82
2022/02/12 09:43:49;;;;;;;6.63;2.13;;;24.30;57.10;;;;;;4993537;28;20453;-81
2022/02/12 09:46:49;;;;;;;3.63;1.73;;;24.30;57.10;;;;;;4993775;28;20805;-89
2022/02/12 09:49:16;;;;;;;3.47;2.27;;;24.30;57.20;;;;;;4993423;28;20519;-82
2022/02/12 09:51:44;;;;;;;4.70;1.90;;;24.30;57.40;;;;;;4993486;28;20436;-82
2022/02/12 09:54:10;;;;;;;3.40;2.23;;;24.40;57.50;;;;;;4993462;28;20519;-88
2022/02/12 09:56:37;;;;;;;3.83;1.60;;;24.40;57.50;;;;;;4993375;28;20809;-81
2022/02/12 09:59:05;;;;;;;2.47;2.00;;;24.40;57.40;;;;;;4993207;28;20470;-81
2022/02/12 10:01:32;;;;;;;4.27;2.33;;;24.40;57.40;;;;;;4993113;28;20958;-87
2022/02/12 10:03:59;;;;;;;3.53;2.33;;;24.50;57.40;;;;;;4993144;28;20463;-87
2022/02/12 10:06:39;;;;;;;1.97;1.73;;;24.60;57.60;;;;;;4993466;28;20448;-81
2022/02/12 10:09:06;;;;;;;3.57;1.87;;;24.70;57.60;;;;;;4993287;28;20440;-81
2022/02/12 10:11:41;;;;;;;5.10;2.10;;;24.80;57.60;;;;;;4997536;28;20932;-83
2022/02/12 10:14:14;;;;;;;4.27;2.40;;;24.80;57.40;;;;;;4998202;28;20451;-93
2022/02/12 10:17:06;;;;;;;3.83;1.80;;;24.70;57.50;;;;;;5033090;23;20464;-81
2022/02/12 10:19:35;;;;;;;5.40;2.13;;;24.70;57.40;;;;;;5082850;28;20444;-81
2022/02/12 10:22:20;;;;;;;7.57;2.07;;;24.60;57.40;;;;;;5107155;28;20436;-81
2022/02/12 10:24:55;;;;;;;6.30;2.00;;;24.50;57.20;;;;;;5096226;28;20953;-83
2022/02/12 10:27:23;;;;;;;7.83;2.43;;;24.50;57.40;;;;;;5096068;28;20431;-83
2022/02/12 10:29:52;;;;;;;3.80;2.17;;;24.40;52.90;;;;;;5077194;28;20461;-85
2022/02/12 10:32:20;;;;;;;5.87;2.20;;;;;;;;;;5075955;28;20495;-82
2022/02/12 10:34:48;;;;;;;2.77;1.97;;;24.30;55.80;;;;;;5075968;28;20484;-88
2022/02/12 10:37:17;;;;;;;2.60;1.70;;;24.20;55.70;;;;;;5078770;28;20455;-87
2022/02/12 10:39:55;;;;;;;7.23;2.60;;;24.20;54.10;;;;;;5083191;28;20432;-87
2022/02/12 10:42:23;;;;;;;4.03;1.83;;;24.20;54.90;;;;;;5087783;28;20423;-95
2022/02/12 10:45:07;;;;;;;4.60;2.70;;;24.20;55.60;;;;;;5080360;28;20936;-88
2022/02/12 10:47:36;;;;;;;4.67;1.90;;;24.20;57.40;;;;;;5077712;28;20440;-96
2022/02/12 10:50:03;;;;;;;5.13;1.63;;;24.30;57.60;;;;;;5079421;28;20928;-96
2022/02/12 10:52:45;;;;;;;7.50;1.97;;;24.20;57.10;;;;;;5079037;28;20433;-87
2022/02/12 10:55:31;;;;;;;4.57;2.00;;;24.20;57.10;;;;;;5080812;28;20476;-96
2022/02/12 10:57:59;;;;;;;5.67;2.30;;;24.20;57.10;;;;;;5080834;28;20987;-95
2022/02/12 11:00:27;;;;;;;8.80;2.20;;;24.20;56.90;;;;;;5088422;28;20441;-86
2022/02/12 11:02:56;;;;;;;7.43;2.50;;;24.20;57.10;;;;;;5080499;28;20440;-86
2022/02/12 11:05:24;;;;;;;7.60;2.60;;;24.20;57.30;;;;;;5075008;28;20445;-85
2022/02/12 11:07:51;;;;;;;11.13;2.30;;;24.20;57.20;;;;;;5075204;28;20445;-85
2022/02/12 11:10:18;;;;;;;8.80;2.23;;;24.30;57.30;;;;;;5075169;28;20437;-84
2022/02/12 11:12:46;;;;;;;5.40;2.50;;;24.30;57.30;;;;;;5075352;28;20449;-84
2022/02/12 11:15:13;;;;;;;5.83;1.83;;;24.40;57.40;;;;;;5074866;28;20473;-84
2022/02/12 11:17:41;;;;;;;9.20;2.60;;;24.50;57.40;;;;;;5074649;28;20834;-84
2022/02/12 11:20:11;;;;;;;3.50;1.93;;;24.50;57.40;;;;;;5074739;28;20452;-84
2022/02/12 11:22:40;;;;;;;3.53;1.90;;;24.60;57.40;;;;;;5074336;28;20441;-84
2022/02/12 11:25:35;;;;;;;6.93;2.53;;;24.70;57.50;;;;;;5074135;28;20444;-84
2022/02/12 11:28:06;;;;;;;6.60;2.00;;;24.80;57.50;;;;;;5073909;28;20881;-84
2022/02/12 11:30:33;;;;;;;3.07;2.30;;;24.80;57.40;;;;;;5074414;28;20452;-84
2022/02/12 11:33:07;;;;;;;4.77;2.13;;;24.80;57.50;;;;;;5074508;28;20440;-84
2022/02/12 11:35:35;;;;;;;2.77;2.03;;;24.90;57.50;;;;;;5074639;28;20476;-84
2022/02/12 11:38:03;;;;;;;4.80;2.67;;;25.00;57.50;;;;;;5074663;28;20440;-84
2022/02/12 11:40:30;;;;;;;6.20;2.20;;;25.00;57.50;;;;;;5074603;28;20440;-84
2022/02/12 11:42:59;;;;;;;1.50;1.40;;;25.00;57.60;;;;;;5074331;28;20437;-84
2022/02/12 11:45:33;;;;;;;4.40;1.83;;;25.00;57.50;;;;;;5074327;28;20441;-84
2022/02/12 11:48:17;;;;;;;2.57;2.37;;;25.10;57.50;;;;;;5074231;28;20539;-84
2022/02/12 11:50:48;;;;;;;3.53;1.97;;;25.20;57.50;;;;;;5074425;28;20452;-84
2022/02/12 11:53:37;;;;;;;5.80;2.30;;;25.20;57.60;;;;;;5074270;28;20775;-84
2022/02/12 11:56:07;;;;;;;3.70;1.80;;;25.20;57.60;;;;;;5074310;28;20488;-84
2022/02/12 11:58:59;;;;;;;8.13;2.80;;;25.10;57.70;;;;;;5074110;28;20484;-84
2022/02/12 12:01:45;;;;;;;3.07;2.40;;;25.10;57.80;;;;;;5074620;28;20424;-84
2022/02/12 12:04:18;;;;;;;4.40;2.43;;;25.00;57.90;;;;;;5073933;28;20782;-84
2022/02/12 12:07:17;;;;;;;6.70;2.90;;;25.10;58.00;;;;;;5073946;28;20536;-84
2022/02/12 12:10:11;;;;;;;4.47;2.43;;;25.10;58.00;;;;;;5067459;28;20445;-85
2022/02/12 12:12:38;;;;;;;6.23;2.80;;;25.10;58.10;;;;;;5073946;28;20803;-84
2022/02/12 12:15:16;;;;;;;6.20;2.30;;;25.00;58.10;;;;;;5073867;28;20464;-84
2022/02/12 12:17:43;;;;;;;6.83;2.03;;;25.00;58.00;;;;;;5073610;28;20471;-84
2022/02/12 12:20:11;;;;;;;2.93;2.10;;;25.00;58.20;;;;;;5073825;28;20461;-84
2022/02/12 12:22:38;;;;;;;5.97;2.23;;;24.90;58.30;;;;;;5073936;28;20433;-84
2022/02/12 12:25:06;;;;;;;8.10;1.80;;;24.90;58.20;;;;;;5073768;28;20448;-84
2022/02/12 12:27:35;;;;;;;5.10;2.23;;;24.80;58.20;;;;;;5073308;28;20451;-84
2022/02/12 12:32:57;;;;;;;3.43;2.10;;;24.90;58.30;;;;;;5073174;28;20494;-84
2022/02/12 12:35:25;;;;;;;4.70;2.37;;;24.90;58.30;;;;;;5073552;28;20962;-84
2022/02/12 12:37:54;;;;;;;2.63;1.97;;;25.00;58.30;;;;;;5073513;28;20443;-84
2022/02/12 12:40:28;;;;;;;5.43;2.03;;;25.00;58.30;;;;;;5073423;28;20441;-84
2022/02/12 12:43:04;;;;;;;3.87;2.27;;;25.10;58.30;;;;;;5073410;28;20943;-84
2022/02/12 12:45:31;;;;;;;2.20;1.80;;;25.10;58.30;;;;;;5073655;28;20445;-84
2022/02/12 12:47:58;;;;;;;2.50;1.87;;;25.10;58.30;;;;;;5073364;28;20429;-84
2022/02/12 12:50:26;;;;;;;2.33;2.13;;;25.10;58.30;;;;;;5073608;28;20440;-84
2022/02/12 12:53:03;;;;;;;2.43;1.73;;;25.10;58.30;;;;;;5073213;28;20437;-84
2022/02/12 12:55:30;;;;;;;2.30;1.87;;;25.20;58.30;;;;;;5073584;28;20505;-84
2022/02/12 12:57:57;;;;;;;3.30;2.17;;;25.10;58.30;;;;;;5073305;28;20456;-84
2022/02/12 13:00:26;;;;;;;3.17;2.00;;;25.10;58.30;;;;;;5073294;28;20449;-84
2022/02/12 13:02:54;;;;;;;3.10;1.80;;;25.20;58.30;;;;;;5073385;28;20444;-84
2022/02/12 13:05:22;;;;;;;2.43;1.80;;;25.20;58.20;;;;;;5072945;28;20439;-84